createdAt,value
2018-06-15T00:00:36.810Z,83.76
2018-06-15T00:01:39.593Z,83.70
2018-06-15T00:02:42.493Z,84.07
2018-06-15T00:03:45.232Z,83.48
2018-06-15T00:04:48.884Z,83.77
2018-06-15T00:05:52.068Z,83.06
2018-06-15T00:06:54.860Z,83.00
2018-06-15T00:07:57.630Z,82.92
2018-06-15T00:09:02.576Z,83.30
2018-06-15T00:10:05.353Z,83.62
2018-06-15T00:11:08.600Z,83.43
2018-06-15T00:12:11.387Z,83.80
2018-06-15T00:13:14.156Z,83.43
2018-06-15T00:14:18.128Z,83.90
2018-06-15T00:15:21.479Z,83.98
2018-06-15T00:16:25.234Z,84.96
2018-06-15T00:17:29.590Z,84.34
2018-06-15T00:18:34.575Z,84.87
2018-06-15T00:19:37.752Z,84.96
2018-06-15T00:20:40.875Z,85.42
2018-06-15T00:21:43.689Z,85.12
2018-06-15T00:22:46.545Z,85.44
2018-06-15T00:23:50.408Z,85.53
2018-06-15T00:24:53.265Z,85.59
2018-06-15T00:25:56.045Z,85.19
2018-06-15T00:26:58.844Z,84.91
2018-06-15T00:28:01.672Z,85.29
2018-06-15T00:29:04.444Z,85.58
2018-06-15T00:30:08.336Z,85.31
2018-06-15T00:31:11.126Z,85.11
2018-06-15T00:32:13.920Z,84.81
2018-06-15T00:33:16.708Z,84.78
2018-06-15T00:34:19.470Z,85.49
2018-06-15T00:35:22.358Z,85.03
2018-06-15T00:36:25.787Z,85.68
2018-06-15T00:37:29.284Z,85.66
2018-06-15T00:38:37.656Z,85.06
2018-06-15T00:39:42.187Z,85.16
2018-06-15T00:40:46.597Z,85.33
2018-06-15T00:41:49.456Z,85.27
2018-06-15T00:42:53.391Z,85.86
2018-06-15T00:43:56.671Z,86.13
2018-06-15T00:44:59.573Z,85.97
2018-06-15T00:46:05.825Z,85.21
2018-06-15T00:47:09.612Z,85.28
2018-06-15T00:48:14.907Z,85.11
2018-06-15T00:49:22.508Z,86.29
2018-06-15T00:50:26.272Z,86.00
2018-06-15T00:51:36.358Z,85.96
2018-06-15T00:52:40.824Z,85.79
2018-06-15T00:53:43.792Z,85.68
2018-06-15T00:54:46.802Z,86.16
2018-06-15T00:55:50.399Z,86.79
2018-06-15T00:56:53.179Z,86.80
2018-06-15T00:57:55.962Z,86.36
2018-06-15T00:58:59.226Z,86.82
2018-06-15T01:00:02.113Z,86.42
2018-06-15T01:01:05.030Z,86.45
2018-06-15T01:02:08.340Z,85.08
2018-06-15T01:03:12.308Z,85.08
2018-06-15T01:04:15.603Z,86.21
2018-06-15T01:05:19.081Z,85.69
2018-06-15T01:06:22.117Z,85.67
2018-06-15T01:07:24.898Z,85.67
2018-06-15T01:08:27.921Z,85.13
2018-06-15T01:09:30.682Z,85.04
2018-06-15T01:10:33.438Z,85.83
2018-06-15T01:11:36.203Z,84.90
2018-06-15T01:12:39.042Z,85.73
2018-06-15T01:13:41.831Z,85.32
2018-06-15T01:14:44.892Z,84.95
2018-06-15T01:15:47.668Z,84.98
2018-06-15T01:16:50.433Z,84.85
2018-06-15T01:17:53.181Z,85.60
2018-06-15T01:18:55.953Z,84.94
2018-06-15T01:19:59.368Z,85.19
2018-06-15T01:21:04.404Z,85.00
2018-06-15T01:22:07.167Z,84.79
2018-06-15T01:23:10.537Z,84.23
2018-06-15T01:24:13.272Z,84.40
2018-06-15T01:25:17.518Z,83.86
2018-06-15T01:26:20.315Z,83.84
2018-06-15T01:27:23.378Z,84.36
2018-06-15T01:28:26.192Z,84.23
2018-06-15T01:29:30.638Z,84.80
2018-06-15T01:30:33.425Z,84.55
2018-06-15T01:31:36.243Z,84.44
2018-06-15T01:32:38.995Z,84.78
2018-06-15T01:33:42.115Z,85.08
2018-06-15T01:34:44.861Z,84.63
2018-06-15T01:35:47.622Z,84.95
2018-06-15T01:36:51.030Z,84.86
2018-06-15T01:37:53.802Z,84.91
2018-06-15T01:38:56.577Z,84.38
2018-06-15T01:40:14.576Z,84.21
2018-06-15T01:41:17.353Z,84.16
2018-06-15T01:42:20.162Z,84.90
2018-06-15T01:43:23.012Z,84.10
2018-06-15T01:44:25.776Z,84.06
2018-06-15T01:45:28.857Z,84.39
2018-06-15T01:46:31.622Z,84.01
2018-06-15T01:47:36.217Z,84.63
2018-06-15T01:48:39.004Z,84.11
2018-06-15T01:49:43.071Z,83.86
2018-06-15T01:50:46.424Z,84.25
2018-06-15T01:51:49.485Z,84.55
2018-06-15T01:52:52.412Z,84.27
2018-06-15T01:53:55.218Z,84.56
2018-06-15T01:54:58.005Z,84.32
2018-06-15T01:56:01.008Z,84.50
2018-06-15T01:57:05.265Z,84.79
2018-06-15T01:58:08.304Z,84.48
2018-06-15T01:59:11.060Z,85.11
2018-06-15T02:00:13.857Z,85.16
2018-06-15T02:01:16.636Z,84.29
2018-06-15T02:02:19.406Z,84.71
2018-06-15T02:03:22.212Z,84.70
2018-06-15T02:04:25.289Z,84.69
2018-06-15T02:05:28.055Z,84.70
2018-06-15T02:06:30.866Z,85.02
2018-06-15T02:07:33.618Z,85.03
2018-06-15T02:08:36.394Z,84.69
2018-06-15T02:09:39.212Z,85.16
2018-06-15T02:10:42.976Z,85.42
2018-06-15T02:11:45.857Z,85.34
2018-06-15T02:12:48.635Z,85.47
2018-06-15T02:13:51.429Z,86.02
2018-06-15T02:14:54.193Z,86.05
2018-06-15T02:15:57.546Z,86.60
2018-06-15T02:17:00.692Z,86.65
2018-06-15T02:18:04.113Z,87.07
2018-06-15T02:19:06.867Z,87.10
2018-06-15T02:20:09.679Z,86.56
2018-06-15T02:21:13.159Z,86.69
2018-06-15T02:22:16.017Z,87.61
2018-06-15T02:23:19.800Z,87.72
2018-06-15T02:24:22.566Z,87.19
2018-06-15T02:25:25.375Z,87.90
2018-06-15T02:26:28.157Z,87.83
2018-06-15T02:27:30.926Z,87.64
2018-06-15T02:28:33.790Z,87.85
2018-06-15T02:29:36.890Z,87.77
2018-06-15T02:30:39.646Z,87.71
2018-06-15T02:31:42.438Z,87.46
2018-06-15T02:32:45.197Z,87.34
2018-06-15T02:33:47.996Z,87.42
2018-06-15T02:34:50.788Z,87.30
2018-06-15T02:35:53.865Z,86.86
2018-06-15T02:36:56.607Z,87.01
2018-06-15T02:37:59.425Z,87.70
2018-06-15T02:39:02.185Z,87.90
2018-06-15T02:40:04.945Z,87.58
2018-06-15T02:41:07.717Z,88.23
2018-06-15T02:42:10.807Z,88.44
2018-06-15T02:43:13.577Z,88.64
2018-06-15T02:44:16.344Z,87.74
2018-06-15T02:45:19.117Z,88.31
2018-06-15T02:46:21.884Z,87.71
2018-06-15T02:47:24.657Z,88.21
2018-06-15T02:48:27.742Z,88.38
2018-06-15T02:49:30.509Z,87.82
2018-06-15T02:50:33.284Z,87.89
2018-06-15T02:51:36.025Z,87.91
2018-06-15T02:52:39.114Z,88.60
2018-06-15T02:53:41.904Z,88.61
2018-06-15T02:54:45.034Z,88.36
2018-06-15T02:55:48.192Z,88.69
2018-06-15T02:56:51.095Z,88.09
2018-06-15T02:57:54.816Z,87.99
2018-06-15T02:58:57.632Z,88.57
2018-06-15T03:00:00.417Z,88.10
2018-06-15T03:01:03.535Z,88.30
2018-06-15T03:02:06.305Z,88.20
2018-06-15T03:03:09.048Z,88.49
2018-06-15T03:04:11.861Z,87.79
2018-06-15T03:05:14.634Z,88.48
2018-06-15T03:06:17.453Z,88.62
2018-06-15T03:07:20.506Z,87.85
2018-06-15T03:08:23.289Z,88.87
2018-06-15T03:09:29.262Z,88.76
2018-06-15T03:10:32.024Z,88.65
2018-06-15T03:11:34.798Z,88.07
2018-06-15T03:12:37.595Z,87.84
2018-06-15T03:13:40.710Z,88.11
2018-06-15T03:14:43.533Z,87.62
2018-06-15T03:15:46.334Z,87.47
2018-06-15T03:16:50.064Z,88.16
2018-06-15T03:17:52.826Z,87.85
2018-06-15T03:18:55.624Z,87.88
2018-06-15T03:19:59.515Z,88.15
2018-06-15T03:21:02.278Z,88.29
2018-06-15T03:22:05.883Z,88.33
2018-06-15T03:23:08.621Z,87.97
2018-06-15T03:24:12.608Z,87.70
2018-06-15T03:25:16.187Z,88.68
2018-06-15T03:26:19.214Z,87.96
2018-06-15T03:27:23.636Z,88.05
2018-06-15T03:28:26.397Z,87.43
2018-06-15T03:29:29.184Z,87.71
2018-06-15T03:30:31.955Z,87.96
2018-06-15T03:31:34.697Z,87.95
2018-06-15T03:32:37.497Z,87.12
2018-06-15T03:33:40.294Z,87.44
2018-06-15T03:34:44.350Z,88.05
2018-06-15T03:35:47.156Z,87.90
2018-06-15T03:36:49.936Z,87.57
2018-06-15T03:37:52.817Z,87.08
2018-06-15T03:38:56.898Z,87.71
2018-06-15T03:39:59.670Z,87.62
2018-06-15T03:41:02.470Z,87.88
2018-06-15T03:42:05.265Z,87.56
2018-06-15T03:43:08.062Z,87.05
2018-06-15T03:44:10.815Z,87.28
2018-06-15T03:45:13.913Z,86.84
2018-06-15T03:46:16.760Z,87.34
2018-06-15T03:47:20.328Z,87.37
2018-06-15T03:48:23.075Z,87.22
2018-06-15T03:49:25.852Z,87.86
2018-06-15T03:50:28.625Z,87.54
2018-06-15T03:51:31.770Z,87.59
2018-06-15T03:52:35.405Z,87.46
2018-06-15T03:53:38.186Z,87.25
2018-06-15T03:54:41.027Z,87.33
2018-06-15T03:55:43.804Z,87.94
2018-06-15T03:56:46.628Z,87.89
2018-06-15T03:57:49.710Z,87.45
2018-06-15T03:58:52.817Z,88.07
2018-06-15T03:59:55.587Z,87.17
2018-06-15T04:00:59.008Z,87.53
2018-06-15T04:02:01.853Z,87.64
2018-06-15T04:03:07.134Z,87.66
2018-06-15T04:04:10.615Z,88.02
2018-06-15T04:05:13.424Z,87.99
2018-06-15T04:06:16.173Z,87.96
2018-06-15T04:07:18.970Z,88.20
2018-06-15T04:08:21.746Z,87.76
2018-06-15T04:09:24.487Z,87.91
2018-06-15T04:10:27.244Z,87.98
2018-06-15T04:11:30.928Z,87.22
2018-06-15T04:12:36.622Z,87.45
2018-06-15T04:13:39.373Z,87.92
2018-06-15T04:14:42.245Z,87.75
2018-06-15T04:15:45.372Z,86.84
2018-06-15T04:16:48.154Z,87.36
2018-06-15T04:17:57.546Z,86.43
2018-06-15T04:19:00.288Z,86.98
2018-06-15T04:20:03.117Z,87.27
2018-06-15T04:21:06.206Z,86.56
2018-06-15T04:22:09.247Z,86.92
2018-06-15T04:23:12.697Z,86.60
2018-06-15T04:24:16.516Z,86.78
2018-06-15T04:25:19.316Z,87.16
2018-06-15T04:26:22.103Z,86.81
2018-06-15T04:27:24.869Z,87.01
2018-06-15T04:28:27.927Z,86.65
2018-06-15T04:29:31.790Z,86.46
2018-06-15T04:30:34.549Z,86.37
2018-06-15T04:31:37.906Z,86.47
2018-06-15T04:32:40.736Z,86.24
2018-06-15T04:33:43.495Z,86.01
2018-06-15T04:34:46.244Z,86.78
2018-06-15T04:35:49.071Z,86.59
2018-06-15T04:36:51.850Z,86.19
2018-06-15T04:37:55.299Z,86.00
2018-06-15T04:38:58.551Z,86.53
2018-06-15T04:40:01.412Z,86.26
2018-06-15T04:41:04.164Z,86.64
2018-06-15T04:42:07.955Z,86.31
2018-06-15T04:43:10.769Z,86.24
2018-06-15T04:44:15.495Z,86.36
2018-06-15T04:45:21.141Z,86.33
2018-06-15T04:46:25.126Z,85.66
2018-06-15T04:47:30.371Z,85.68
2018-06-15T04:48:33.979Z,85.65
2018-06-15T04:49:37.396Z,86.27
2018-06-15T04:50:40.719Z,85.51
2018-06-15T04:51:44.408Z,86.21
2018-06-15T04:52:47.387Z,86.12
2018-06-15T04:53:50.661Z,85.75
2018-06-15T04:54:53.609Z,85.52
2018-06-15T04:55:57.163Z,86.16
2018-06-15T04:57:01.849Z,85.80
2018-06-15T04:58:06.897Z,86.00
2018-06-15T04:59:10.672Z,85.41
2018-06-15T05:00:14.772Z,85.65
2018-06-15T05:01:19.474Z,86.16
2018-06-15T05:02:24.047Z,85.48
2018-06-15T05:03:29.634Z,85.82
2018-06-15T05:04:33.467Z,85.82
2018-06-15T05:05:38.051Z,86.32
2018-06-15T05:06:43.458Z,86.16
2018-06-15T05:07:47.569Z,85.83
2018-06-15T05:08:50.330Z,85.90
2018-06-15T05:09:54.053Z,85.83
2018-06-15T05:10:57.118Z,85.95
2018-06-15T05:12:00.323Z,85.55
2018-06-15T05:13:04.207Z,85.44
2018-06-15T05:14:07.756Z,85.38
2018-06-15T05:15:11.576Z,85.07
2018-06-15T05:16:14.717Z,85.72
2018-06-15T05:17:17.951Z,85.87
2018-06-15T05:18:20.810Z,85.63
2018-06-15T05:19:23.590Z,85.32
2018-06-15T05:20:26.406Z,85.70
2018-06-15T05:21:29.205Z,85.80
2018-06-15T05:22:32.043Z,86.21
2018-06-15T05:23:35.163Z,85.56
2018-06-15T05:24:37.943Z,85.63
2018-06-15T05:25:41.140Z,86.03
2018-06-15T05:26:48.197Z,85.63
2018-06-15T05:27:51.142Z,85.84
2018-06-15T05:28:57.869Z,86.60
2018-06-15T05:30:00.637Z,86.46
2018-06-15T05:31:03.729Z,85.77
2018-06-15T05:32:06.533Z,86.03
2018-06-15T05:33:10.930Z,86.06
2018-06-15T05:34:13.718Z,85.53
2018-06-15T05:35:17.713Z,84.88
2018-06-15T05:36:20.589Z,85.23
2018-06-15T05:37:23.449Z,85.65
2018-06-15T05:38:26.227Z,85.77
2018-06-15T05:39:29.068Z,85.10
2018-06-15T05:40:31.890Z,85.18
2018-06-15T05:41:34.965Z,85.28
2018-06-15T05:42:38.647Z,85.71
2018-06-15T05:43:41.546Z,84.87
2018-06-15T05:44:44.319Z,84.72
2018-06-15T05:45:49.322Z,85.59
2018-06-15T05:46:53.288Z,84.96
2018-06-15T05:47:56.369Z,84.25
2018-06-15T05:48:59.286Z,84.50
2018-06-15T05:50:02.176Z,84.61
2018-06-15T05:51:04.999Z,84.68
2018-06-15T05:52:08.450Z,84.92
2018-06-15T05:53:11.739Z,84.75
2018-06-15T05:54:15.141Z,85.09
2018-06-15T05:55:18.587Z,84.58
2018-06-15T05:56:21.471Z,85.27
2018-06-15T05:57:25.312Z,85.72
2018-06-15T05:58:30.077Z,85.86
2018-06-15T05:59:34.039Z,85.38
2018-06-15T06:00:37.235Z,85.39
2018-06-15T06:01:40.067Z,84.54
2018-06-15T06:02:43.340Z,84.38
2018-06-15T06:03:46.799Z,84.73
2018-06-15T06:04:50.400Z,83.70
2018-06-15T06:05:54.188Z,83.91
2018-06-15T06:07:00.312Z,84.20
2018-06-15T06:08:03.108Z,84.26
2018-06-15T06:09:05.895Z,84.07
2018-06-15T06:10:08.712Z,84.53
2018-06-15T06:11:11.979Z,83.85
2018-06-15T06:12:15.622Z,84.57
2018-06-15T06:13:20.759Z,84.53
2018-06-15T06:14:24.190Z,84.76
2018-06-15T06:15:28.917Z,84.54
2018-06-15T06:16:31.804Z,84.07
2018-06-15T06:17:35.170Z,85.22
2018-06-15T06:18:37.961Z,84.70
2018-06-15T06:19:55.296Z,85.45
2018-06-15T06:20:58.580Z,85.41
2018-06-15T06:22:01.349Z,84.54
2018-06-15T06:23:04.208Z,84.24
2018-06-15T06:24:08.970Z,84.25
2018-06-15T06:25:12.545Z,84.41
2018-06-15T06:26:15.655Z,83.67
2018-06-15T06:27:20.606Z,84.27
2018-06-15T06:28:24.828Z,83.79
2018-06-15T06:29:27.609Z,84.59
2018-06-15T06:30:30.672Z,84.01
2018-06-15T06:31:33.483Z,84.56
2018-06-15T06:32:36.615Z,84.83
2018-06-15T06:33:39.471Z,85.15
2018-06-15T06:34:45.931Z,85.34
2018-06-15T06:35:48.732Z,85.43
2018-06-15T06:36:51.797Z,84.70
2018-06-15T06:37:56.481Z,83.94
2018-06-15T06:39:02.643Z,84.93
2018-06-15T06:40:06.430Z,84.50
2018-06-15T06:41:09.230Z,84.35
2018-06-15T06:42:12.090Z,84.23
2018-06-15T06:43:14.940Z,84.19
2018-06-15T06:44:17.731Z,84.71
2018-06-15T06:45:29.391Z,85.09
2018-06-15T06:46:32.314Z,83.87
2018-06-15T06:47:37.488Z,83.50
2018-06-15T06:48:41.497Z,84.75
2018-06-15T06:49:44.387Z,84.35
2018-06-15T06:50:47.201Z,83.81
2018-06-15T06:51:50.867Z,83.88
2018-06-15T06:52:53.861Z,84.21
2018-06-15T06:54:03.852Z,83.96
2018-06-15T06:55:09.830Z,84.00
2018-06-15T06:56:13.481Z,83.61
2018-06-15T06:57:16.614Z,82.72
2018-06-15T06:58:20.780Z,82.60
2018-06-15T06:59:24.385Z,82.78
2018-06-15T07:00:32.071Z,81.74
2018-06-15T07:01:36.524Z,82.26
2018-06-15T07:02:39.354Z,82.30
2018-06-15T07:03:42.943Z,81.94
2018-06-15T07:04:47.081Z,81.89
2018-06-15T07:05:49.985Z,81.25
2018-06-15T07:06:52.899Z,81.70
2018-06-15T07:07:56.640Z,81.22
2018-06-15T07:09:04.706Z,81.44
2018-06-15T07:10:07.661Z,81.44
2018-06-15T07:11:15.591Z,81.55
2018-06-15T07:12:18.741Z,80.51
2018-06-15T07:13:21.733Z,80.92
2018-06-15T07:14:27.520Z,81.20
2018-06-15T07:15:31.300Z,80.52
2018-06-15T07:16:34.254Z,80.43
2018-06-15T07:17:37.447Z,80.01
2018-06-15T07:18:40.785Z,80.31
2018-06-15T07:19:46.019Z,80.54
2018-06-15T07:20:59.232Z,80.21
2018-06-15T07:22:08.626Z,79.67
2018-06-15T07:23:12.150Z,80.04
2018-06-15T07:24:16.258Z,79.04
2018-06-15T07:25:23.336Z,78.96
2018-06-15T07:26:29.073Z,79.12
2018-06-15T07:27:33.319Z,79.32
2018-06-15T07:28:37.261Z,79.22
2018-06-15T07:29:41.285Z,79.71
2018-06-15T07:30:45.433Z,80.13
2018-06-15T07:31:49.193Z,80.03
2018-06-15T07:32:52.842Z,79.83
2018-06-15T07:33:58.648Z,79.05
2018-06-15T07:35:06.595Z,79.38
2018-06-15T07:36:11.256Z,79.52
2018-06-15T07:37:19.715Z,79.26
2018-06-15T07:38:30.326Z,78.98
2018-06-15T07:39:34.250Z,79.20
2018-06-15T07:40:39.285Z,79.61
2018-06-15T07:41:44.529Z,78.78
2018-06-15T07:42:49.557Z,79.50
2018-06-15T07:43:53.504Z,79.69
2018-06-15T07:44:57.205Z,79.18
2018-06-15T07:46:03.458Z,79.89
2018-06-15T07:47:10.966Z,79.60
2018-06-15T07:48:15.099Z,78.81
2018-06-15T07:49:18.964Z,79.04
2018-06-15T07:50:32.695Z,80.10
2018-06-15T07:51:36.674Z,79.58
2018-06-15T07:52:40.428Z,79.69
2018-06-15T07:53:45.018Z,78.75
2018-06-15T07:54:51.451Z,79.50
2018-06-15T07:55:56.132Z,79.43
2018-06-15T07:57:04.900Z,79.25
2018-06-15T07:58:09.044Z,79.67
2018-06-15T07:59:12.739Z,79.42
2018-06-15T08:00:16.971Z,78.88
2018-06-15T08:01:23.300Z,78.34
2018-06-15T08:02:27.301Z,77.32
2018-06-15T08:03:42.780Z,77.64
2018-06-15T08:04:47.940Z,77.97
2018-06-15T08:05:56.440Z,78.36
2018-06-15T08:07:00.038Z,77.62
2018-06-15T08:08:04.945Z,78.43
2018-06-15T08:09:10.558Z,77.61
2018-06-15T08:10:13.441Z,76.48
2018-06-15T08:11:21.625Z,75.94
2018-06-15T08:13:34.937Z,75.55
2018-06-15T08:14:37.846Z,75.23
2018-06-15T08:15:41.114Z,75.33
2018-06-15T08:16:50.310Z,75.29
2018-06-15T08:17:53.773Z,75.44
2018-06-15T08:18:57.512Z,75.18
2018-06-15T08:20:00.358Z,75.00
2018-06-15T08:21:03.743Z,74.53
2018-06-15T08:22:11.591Z,74.80
2018-06-15T08:23:14.649Z,75.15
2018-06-15T08:24:17.595Z,75.90
2018-06-15T08:25:20.387Z,75.23
2018-06-15T08:26:26.214Z,74.77
2018-06-15T08:27:29.021Z,75.96
2018-06-15T08:28:34.157Z,75.51
2018-06-15T08:29:37.009Z,74.43
2018-06-15T08:30:43.512Z,74.38
2018-06-15T08:31:46.260Z,74.13
2018-06-15T08:32:49.084Z,73.40
2018-06-15T08:33:53.076Z,73.29
2018-06-15T08:34:57.440Z,73.17
2018-06-15T08:36:00.797Z,72.34
2018-06-15T08:37:03.620Z,72.21
2018-06-15T08:38:07.277Z,72.02
2018-06-15T08:39:10.397Z,72.36
2018-06-15T08:40:13.824Z,71.69
2018-06-15T08:41:17.836Z,71.68
2018-06-15T08:42:20.695Z,72.06
2018-06-15T08:43:24.395Z,73.63
2018-06-15T08:44:27.339Z,74.21
2018-06-15T08:45:31.247Z,73.80
2018-06-15T08:46:34.676Z,73.82
2018-06-15T08:47:39.413Z,73.76
2018-06-15T08:48:43.421Z,72.29
2018-06-15T08:49:46.343Z,72.57
2018-06-15T08:50:49.217Z,72.10
2018-06-15T08:51:52.731Z,71.76
2018-06-15T08:52:55.494Z,72.48
2018-06-15T08:53:59.434Z,71.89
2018-06-15T08:55:06.977Z,72.05
2018-06-15T08:56:10.552Z,72.23
2018-06-15T08:57:14.275Z,71.76
2018-06-15T08:58:17.724Z,71.58
2018-06-15T08:59:20.490Z,70.67
2018-06-15T09:00:23.775Z,71.42
2018-06-15T09:01:29.279Z,71.40
2018-06-15T09:02:32.616Z,71.25
2018-06-15T09:03:35.464Z,70.35
2018-06-15T09:04:41.123Z,70.38
2018-06-15T09:05:45.909Z,70.51
2018-06-15T09:06:49.237Z,69.96
2018-06-15T09:07:52.188Z,69.52
2018-06-15T09:08:55.105Z,70.31
2018-06-15T09:09:57.974Z,68.38
2018-06-15T09:11:00.817Z,68.25
2018-06-15T09:12:03.692Z,68.73
2018-06-15T09:13:07.690Z,67.61
2018-06-15T09:14:11.782Z,68.19
2018-06-15T09:15:14.631Z,67.38
2018-06-15T09:16:19.363Z,66.13
2018-06-15T09:17:22.241Z,66.22
2018-06-15T09:18:27.802Z,66.16
2018-06-15T09:19:31.807Z,66.25
2018-06-15T09:20:35.578Z,65.72
2018-06-15T09:21:38.368Z,65.67
2018-06-15T09:22:42.644Z,66.18
2018-06-15T09:23:47.041Z,66.44
2018-06-15T09:24:51.092Z,66.71
2018-06-15T09:25:55.338Z,67.65
2018-06-15T09:26:58.152Z,66.81
2018-06-15T09:28:01.564Z,67.85
2018-06-15T09:29:05.196Z,67.73
2018-06-15T09:30:07.992Z,68.03
2018-06-15T09:31:11.302Z,68.07
2018-06-15T09:32:15.385Z,68.17
2018-06-15T09:33:19.391Z,69.65
2018-06-15T09:34:23.246Z,67.90
2018-06-15T09:35:26.224Z,68.18
2018-06-15T09:36:30.023Z,67.34
2018-06-15T09:37:33.241Z,67.82
2018-06-15T09:38:36.746Z,68.12
2018-06-15T09:39:39.555Z,66.87
2018-06-15T09:40:44.625Z,65.79
2018-06-15T09:41:47.399Z,67.26
2018-06-15T09:42:50.350Z,65.31
2018-06-15T09:43:56.788Z,66.30
2018-06-15T09:45:00.076Z,65.87
2018-06-15T09:46:03.894Z,66.53
2018-06-15T09:47:08.122Z,65.70
2018-06-15T09:48:12.105Z,65.75
2018-06-15T09:49:14.940Z,65.42
2018-06-15T09:50:17.759Z,64.86
2018-06-15T09:51:22.407Z,65.41
2018-06-15T09:52:25.303Z,66.05
2018-06-15T09:53:28.587Z,66.93
2018-06-15T09:54:31.660Z,65.34
2018-06-15T09:55:34.655Z,65.03
2018-06-15T09:56:37.472Z,65.30
2018-06-15T09:57:40.735Z,63.69
2018-06-15T09:58:43.552Z,63.24
2018-06-15T09:59:47.613Z,63.07
2018-06-15T10:00:51.432Z,63.88
2018-06-15T10:01:54.264Z,63.45
2018-06-15T10:02:57.101Z,63.98
2018-06-15T10:04:03.225Z,63.87
2018-06-15T10:05:06.297Z,63.52
2018-06-15T10:06:09.805Z,64.12
2018-06-15T10:07:12.690Z,64.81
2018-06-15T10:08:15.512Z,65.06
2018-06-15T10:09:19.135Z,65.22
2018-06-15T10:10:22.406Z,64.70
2018-06-15T10:11:27.715Z,64.48
2018-06-15T10:12:32.521Z,63.32
2018-06-15T10:13:36.235Z,62.33
2018-06-15T10:14:41.697Z,63.06
2018-06-15T10:15:45.218Z,63.05
2018-06-15T10:16:49.235Z,61.59
2018-06-15T10:17:55.035Z,62.44
2018-06-15T10:18:59.296Z,62.46
2018-06-15T10:20:02.914Z,62.62
2018-06-15T10:21:06.683Z,61.13
2018-06-15T10:22:10.603Z,63.54
2018-06-15T10:23:15.390Z,64.41
2018-06-15T10:24:19.145Z,62.00
2018-06-15T10:25:25.031Z,63.20
2018-06-15T10:26:28.761Z,63.12
2018-06-15T10:27:33.345Z,63.56
2018-06-15T10:28:36.641Z,64.46
2018-06-15T10:29:43.468Z,64.83
2018-06-15T10:30:49.829Z,64.99
2018-06-15T10:31:52.698Z,64.45
2018-06-15T10:32:57.991Z,63.78
2018-06-15T10:34:01.719Z,62.54
2018-06-15T10:35:04.608Z,62.57
2018-06-15T10:36:08.081Z,61.71
2018-06-15T10:37:12.468Z,63.87
2018-06-15T10:38:30.257Z,63.76
2018-06-15T10:39:35.812Z,65.35
2018-06-15T10:40:42.002Z,64.65
2018-06-15T10:41:46.392Z,65.12
2018-06-15T10:42:54.684Z,66.64
2018-06-15T10:43:58.314Z,67.17
2018-06-15T10:45:04.832Z,66.65
2018-06-15T10:46:16.516Z,66.12
2018-06-15T10:47:20.333Z,66.56
2018-06-15T10:48:24.586Z,63.78
2018-06-15T10:49:27.803Z,62.93
2018-06-15T10:50:33.640Z,62.68
2018-06-15T10:51:37.857Z,63.60
2018-06-15T10:52:43.269Z,60.47
2018-06-15T10:53:46.263Z,61.37
2018-06-15T10:54:49.368Z,60.07
2018-06-15T10:55:53.336Z,61.10
2018-06-15T10:56:56.892Z,59.80
2018-06-15T10:58:00.611Z,59.00
2018-06-15T10:59:08.254Z,60.51
2018-06-15T11:00:11.625Z,61.91
2018-06-15T11:01:14.472Z,61.22
2018-06-15T11:02:20.960Z,61.65
2018-06-15T11:03:25.961Z,60.54
2018-06-15T11:04:35.374Z,61.80
2018-06-15T11:05:39.286Z,61.60
2018-06-15T11:06:42.470Z,61.24
2018-06-15T11:07:45.315Z,61.68
2018-06-15T11:08:48.641Z,60.62
2018-06-15T11:09:56.310Z,60.82
2018-06-15T11:10:59.859Z,59.97
2018-06-15T11:12:02.647Z,59.61
2018-06-15T11:13:06.067Z,59.79
2018-06-15T11:14:12.817Z,59.86
2018-06-15T11:16:26.249Z,61.35
2018-06-15T11:17:29.124Z,61.49
2018-06-15T11:18:31.919Z,59.78
2018-06-15T11:19:34.724Z,60.94
2018-06-15T11:20:38.299Z,60.07
2018-06-15T11:21:41.162Z,59.06
2018-06-15T11:22:46.941Z,60.06
2018-06-15T11:23:49.705Z,59.52
2018-06-15T11:24:55.108Z,60.21
2018-06-15T11:25:59.106Z,60.58
2018-06-15T11:27:01.931Z,59.86
2018-06-15T11:28:04.716Z,59.55
2018-06-15T11:29:07.541Z,59.18
2018-06-15T11:30:11.967Z,59.00
2018-06-15T11:31:15.359Z,60.80
2018-06-15T11:32:20.370Z,60.84
2018-06-15T11:33:25.355Z,60.51
2018-06-15T11:34:28.171Z,60.52
2018-06-15T11:35:30.936Z,59.54
2018-06-15T11:36:34.386Z,60.95
2018-06-15T11:37:38.155Z,59.54
2018-06-15T11:38:42.566Z,59.45
2018-06-15T11:39:45.761Z,58.70
2018-06-15T11:40:48.684Z,57.71
2018-06-15T11:41:51.475Z,59.08
2018-06-15T11:42:57.994Z,58.17
2018-06-15T11:44:01.252Z,57.14
2018-06-15T11:45:04.095Z,57.73
2018-06-15T11:46:07.267Z,58.40
2018-06-15T11:47:10.045Z,58.89
2018-06-15T11:48:13.866Z,58.34
2018-06-15T11:49:16.646Z,57.40
2018-06-15T11:50:20.524Z,57.64
2018-06-15T11:51:24.901Z,55.68
2018-06-15T11:52:29.503Z,57.08
2018-06-15T11:53:32.249Z,57.27
2018-06-15T11:54:36.285Z,57.08
2018-06-15T11:55:40.758Z,56.02
2018-06-15T11:56:43.600Z,57.13
2018-06-15T11:57:47.268Z,56.68
2018-06-15T11:58:50.562Z,56.68
2018-06-15T11:59:54.454Z,57.02
2018-06-15T12:00:58.374Z,56.74
2018-06-15T12:02:01.768Z,57.50
2018-06-15T12:03:04.556Z,57.29
2018-06-15T12:04:07.280Z,56.57
2018-06-15T12:05:10.463Z,56.75
2018-06-15T12:06:13.340Z,55.98
2018-06-15T12:07:17.240Z,56.13
2018-06-15T12:08:20.899Z,57.57
2018-06-15T12:10:44.680Z,55.51
2018-06-15T12:11:47.495Z,55.19
2018-06-15T12:12:50.365Z,56.17
2018-06-15T12:13:53.122Z,55.99
2018-06-15T12:14:55.893Z,56.30
2018-06-15T12:16:00.285Z,56.37
2018-06-15T12:17:03.340Z,55.38
2018-06-15T12:18:06.241Z,55.16
2018-06-15T12:19:09.691Z,55.45
2018-06-15T12:20:14.367Z,55.64
2018-06-15T12:21:17.240Z,56.23
2018-06-15T12:22:20.436Z,56.53
2018-06-15T12:23:23.625Z,56.41
2018-06-15T12:24:26.431Z,55.37
2018-06-15T12:25:29.721Z,54.68
2018-06-15T12:26:32.692Z,56.03
2018-06-15T12:27:35.484Z,58.05
2018-06-15T12:28:38.917Z,57.40
2018-06-15T12:29:43.077Z,57.21
2018-06-15T12:30:45.905Z,57.04
2018-06-15T12:31:48.705Z,56.49
2018-06-15T12:32:52.323Z,57.21
2018-06-15T12:33:55.746Z,55.92
2018-06-15T12:35:00.677Z,56.42
2018-06-15T12:36:03.727Z,55.96
2018-06-15T12:37:06.800Z,55.25
2018-06-15T12:38:10.151Z,55.58
2018-06-15T12:39:12.964Z,55.64
2018-06-15T12:40:15.749Z,55.70
2018-06-15T12:41:20.307Z,56.26
2018-06-15T12:42:23.423Z,56.40
2018-06-15T12:43:26.211Z,56.48
2018-06-15T12:44:28.991Z,55.77
2018-06-15T12:45:31.745Z,56.44
2018-06-15T12:46:35.368Z,57.04
2018-06-15T12:47:38.796Z,57.88
2018-06-15T12:48:44.018Z,56.41
2018-06-15T12:49:47.384Z,56.69
2018-06-15T12:50:51.201Z,56.02
2018-06-15T12:51:54.013Z,56.65
2018-06-15T12:52:57.644Z,56.31
2018-06-15T12:54:01.460Z,56.30
2018-06-15T12:55:07.624Z,56.45
2018-06-15T12:56:10.404Z,56.71
2018-06-15T12:57:15.630Z,54.82
2018-06-15T12:58:18.423Z,55.70
2018-06-15T12:59:21.245Z,56.26
2018-06-15T13:00:27.530Z,55.59
2018-06-15T13:01:31.799Z,54.87
2018-06-15T13:02:34.700Z,54.91
2018-06-15T13:03:38.453Z,54.78
2018-06-15T13:04:42.012Z,54.81
2018-06-15T13:05:45.971Z,55.38
2018-06-15T13:06:49.805Z,55.06
2018-06-15T13:07:53.080Z,53.83
2018-06-15T13:08:55.929Z,53.13
2018-06-15T13:10:01.537Z,52.20
2018-06-15T13:11:06.616Z,51.90
2018-06-15T13:12:09.667Z,51.79
2018-06-15T13:13:14.051Z,53.40
2018-06-15T13:15:21.101Z,52.41
2018-06-15T13:16:24.934Z,53.13
2018-06-15T13:17:27.764Z,53.29
2018-06-15T13:18:33.232Z,53.10
2018-06-15T13:19:36.660Z,52.92
2018-06-15T13:20:40.036Z,53.60
2018-06-15T13:21:46.573Z,54.48
2018-06-15T13:22:49.382Z,53.51
2018-06-15T13:23:55.645Z,54.29
2018-06-15T13:24:59.337Z,53.86
2018-06-15T13:26:02.164Z,54.18
2018-06-15T13:27:05.855Z,54.13
2018-06-15T13:28:08.654Z,54.27
2018-06-15T13:29:11.424Z,53.91
2018-06-15T13:30:15.374Z,54.33
2018-06-15T13:31:18.136Z,55.42
2018-06-15T13:32:21.852Z,54.54
2018-06-15T13:33:25.896Z,54.97
2018-06-15T13:34:28.706Z,53.93
2018-06-15T13:35:32.690Z,52.21
2018-06-15T13:36:38.002Z,50.32
2018-06-15T13:37:41.463Z,52.35
2018-06-15T13:38:45.279Z,52.44
2018-06-15T13:39:48.413Z,53.29
2018-06-15T13:40:51.249Z,53.36
2018-06-15T13:41:54.025Z,53.40
2018-06-15T13:42:57.219Z,53.26
2018-06-15T13:44:03.035Z,52.49
2018-06-15T13:45:10.643Z,51.50
2018-06-15T13:46:13.447Z,50.78